sensor_id;sensor_type;location;lat;lon;timestamp;pressure;altitude;pressure_sealevel;temperature;humidity
69214;BME280;56325;47.030;18.518;2023-01-09T00:00:19;99809.00;;;8.25;82.88
69214;BME280;56325;47.030;18.518;2023-01-09T00:02:54;99806.38;;;8.21;83.13
69214;BME280;56325;47.030;18.518;2023-01-09T00:05:30;99799.09;;;8.18;83.33
69214;BME280;56325;47.030;18.518;2023-01-09T00:08:05;99803.66;;;8.21;83.51
69214;BME280;56325;47.030;18.518;2023-01-09T00:10:39;99803.97;;;8.23;83.35
69214;BME280;56325;47.030;18.518;2023-01-09T00:13:13;99808.78;;;8.10;83.84
69214;BME280;56325;47.030;18.518;2023-01-09T00:15:49;99801.38;;;8.19;83.72
69214;BME280;56325;47.030;18.518;2023-01-09T00:18:24;99789.81;;;8.25;83.63
69214;BME280;56325;47.030;18.518;2023-01-09T00:21:00;99798.66;;;8.29;83.50
69214;BME280;56325;47.030;18.518;2023-01-09T00:23:34;99791.66;;;8.28;83.54
69214;BME280;56325;47.030;18.518;2023-01-09T00:26:14;99795.47;;;8.30;83.35
69214;BME280;56325;47.030;18.518;2023-01-09T00:28:50;99789.25;;;8.39;83.14
69214;BME280;56325;47.030;18.518;2023-01-09T00:31:26;99788.66;;;8.35;83.10
69214;BME280;56325;47.030;18.518;2023-01-09T00:34:02;99795.78;;;8.32;83.60
69214;BME280;56325;47.030;18.518;2023-01-09T00:36:39;99778.16;;;8.33;83.56
69214;BME280;56325;47.030;18.518;2023-01-09T00:39:13;99787.00;;;8.46;82.69
69214;BME280;56325;47.030;18.518;2023-01-09T00:41:50;99773.75;;;8.45;82.88
69214;BME280;56325;47.030;18.518;2023-01-09T00:44:28;99766.13;;;8.49;82.56
69214;BME280;56325;47.030;18.518;2023-01-09T00:47:06;99763.41;;;8.49;82.58
69214;BME280;56325;47.030;18.518;2023-01-09T00:49:43;99766.00;;;8.52;82.44
69214;BME280;56325;47.030;18.518;2023-01-09T00:52:20;99760.22;;;8.50;82.47
69214;BME280;56325;47.030;18.518;2023-01-09T00:54:56;99763.72;;;8.60;81.95
69214;BME280;56325;47.030;18.518;2023-01-09T00:57:31;99758.22;;;8.60;81.86
69214;BME280;56325;47.030;18.518;2023-01-09T01:00:07;99758.53;;;8.62;81.78
69214;BME280;56325;47.030;18.518;2023-01-09T01:02:41;99758.38;;;8.57;82.04
69214;BME280;56325;47.030;18.518;2023-01-09T01:05:16;99750.78;;;8.51;82.07
69214;BME280;56325;47.030;18.518;2023-01-09T01:08:13;99742.84;;;8.53;82.03
69214;BME280;56325;47.030;18.518;2023-01-09T01:10:47;99754.28;;;8.52;81.88
69214;BME280;56325;47.030;18.518;2023-01-09T01:13:21;99746.66;;;8.56;81.88
69214;BME280;56325;47.030;18.518;2023-01-09T01:15:56;99748.19;;;8.57;81.69
69214;BME280;56325;47.030;18.518;2023-01-09T01:18:30;99736.47;;;8.66;81.61
69214;BME280;56325;47.030;18.518;2023-01-09T01:21:05;99741.03;;;8.60;81.70
69214;BME280;56325;47.030;18.518;2023-01-09T01:23:42;99741.63;;;8.64;81.64
69214;BME280;56325;47.030;18.518;2023-01-09T01:26:16;99741.59;;;8.73;80.83
69214;BME280;56325;47.030;18.518;2023-01-09T01:28:51;99728.06;;;8.69;81.14
69214;BME280;56325;47.030;18.518;2023-01-09T01:31:25;99727.31;;;8.60;81.31
69214;BME280;56325;47.030;18.518;2023-01-09T01:33:59;99720.47;;;8.64;81.47
69214;BME280;56325;47.030;18.518;2023-01-09T01:36:34;99718.16;;;8.72;80.93
69214;BME280;56325;47.030;18.518;2023-01-09T01:39:10;99709.47;;;8.73;80.81
69214;BME280;56325;47.030;18.518;2023-01-09T01:41:44;99705.06;;;8.76;80.60
69214;BME280;56325;47.030;18.518;2023-01-09T01:44:57;99704.78;;;8.65;80.80
69214;BME280;56325;47.030;18.518;2023-01-09T01:47:39;99707.50;;;8.74;80.55
69214;BME280;56325;47.030;18.518;2023-01-09T01:50:22;99698.97;;;8.72;80.69
69214;BME280;56325;47.030;18.518;2023-01-09T01:53:04;99695.59;;;8.77;80.19
69214;BME280;56325;47.030;18.518;2023-01-09T01:55:43;99682.81;;;8.74;80.23
69214;BME280;56325;47.030;18.518;2023-01-09T01:58:19;99674.91;;;8.67;80.12
69214;BME280;56325;47.030;18.518;2023-01-09T02:00:53;99676.41;;;8.77;79.74
69214;BME280;56325;47.030;18.518;2023-01-09T02:03:28;99665.47;;;8.77;79.87
69214;BME280;56325;47.030;18.518;2023-01-09T02:06:03;99663.63;;;8.74;79.89
69214;BME280;56325;47.030;18.518;2023-01-09T02:08:38;99660.59;;;8.72;79.86
69214;BME280;56325;47.030;18.518;2023-01-09T02:11:16;99658.00;;;8.77;79.64
69214;BME280;56325;47.030;18.518;2023-01-09T02:13:51;99660.59;;;8.72;79.68
69214;BME280;56325;47.030;18.518;2023-01-09T02:16:35;99649.78;;;8.77;79.41
69214;BME280;56325;47.030;18.518;2023-01-09T02:19:30;99646.72;;;8.75;79.34
69214;BME280;56325;47.030;18.518;2023-01-09T02:22:18;99653.88;;;8.82;79.17
69214;BME280;56325;47.030;18.518;2023-01-09T02:25:11;99644.59;;;8.79;79.11
69214;BME280;56325;47.030;18.518;2023-01-09T02:28:21;99641.69;;;8.83;78.89
69214;BME280;56325;47.030;18.518;2023-01-09T02:31:05;99639.69;;;8.83;78.67
69214;BME280;56325;47.030;18.518;2023-01-09T02:33:49;99636.03;;;8.86;78.42
69214;BME280;56325;47.030;18.518;2023-01-09T02:36:30;99627.66;;;8.90;78.20
69214;BME280;56325;47.030;18.518;2023-01-09T02:39:19;99638.78;;;8.86;78.45
69214;BME280;56325;47.030;18.518;2023-01-09T02:41:57;99616.84;;;8.86;78.28
69214;BME280;56325;47.030;18.518;2023-01-09T02:44:36;99627.31;;;8.97;77.89
69214;BME280;56325;47.030;18.518;2023-01-09T02:47:36;99622.59;;;8.98;78.05
69214;BME280;56325;47.030;18.518;2023-01-09T02:50:15;99619.72;;;8.92;78.24
69214;BME280;56325;47.030;18.518;2023-01-09T02:56:32;99610.91;;;8.88;78.46
69214;BME280;56325;47.030;18.518;2023-01-09T02:59:22;99623.41;;;8.80;78.85
69214;BME280;56325;47.030;18.518;2023-01-09T03:02:12;99620.34;;;8.87;78.58
69214;BME280;56325;47.030;18.518;2023-01-09T03:04:55;99613.03;;;8.84;78.74
69214;BME280;56325;47.030;18.518;2023-01-09T03:07:36;99605.59;;;8.84;78.74
69214;BME280;56325;47.030;18.518;2023-01-09T03:10:16;99613.94;;;8.90;78.42
69214;BME280;56325;47.030;18.518;2023-01-09T03:12:53;99598.41;;;8.87;78.67
69214;BME280;56325;47.030;18.518;2023-01-09T03:15:33;99590.53;;;8.80;78.69
69214;BME280;56325;47.030;18.518;2023-01-09T03:18:10;99586.53;;;8.90;78.30
69214;BME280;56325;47.030;18.518;2023-01-09T03:20:49;99584.13;;;8.83;78.24
69214;BME280;56325;47.030;18.518;2023-01-09T03:23:24;99583.00;;;8.99;77.45
69214;BME280;56325;47.030;18.518;2023-01-09T03:25:58;99590.78;;;8.91;77.33
69214;BME280;56325;47.030;18.518;2023-01-09T03:28:32;99588.47;;;8.99;77.24
69214;BME280;56325;47.030;18.518;2023-01-09T03:31:07;99588.66;;;8.86;77.42
69214;BME280;56325;47.030;18.518;2023-01-09T03:33:42;99587.44;;;8.87;77.32
69214;BME280;56325;47.030;18.518;2023-01-09T03:36:19;99588.81;;;8.92;77.11
69214;BME280;56325;47.030;18.518;2023-01-09T03:38:54;99584.72;;;8.87;77.41
69214;BME280;56325;47.030;18.518;2023-01-09T03:41:28;99575.84;;;8.92;76.87
69214;BME280;56325;47.030;18.518;2023-01-09T03:44:02;99574.34;;;8.91;77.11
69214;BME280;56325;47.030;18.518;2023-01-09T03:46:37;99568.84;;;8.91;76.81
69214;BME280;56325;47.030;18.518;2023-01-09T03:49:11;99576.31;;;8.91;76.99
69214;BME280;56325;47.030;18.518;2023-01-09T03:51:47;99575.38;;;8.94;76.90
69214;BME280;56325;47.030;18.518;2023-01-09T03:54:22;99579.66;;;8.95;76.92
69214;BME280;56325;47.030;18.518;2023-01-09T03:56:56;99567.16;;;8.94;76.95
69214;BME280;56325;47.030;18.518;2023-01-09T03:59:30;99575.56;;;8.90;76.89
69214;BME280;56325;47.030;18.518;2023-01-09T04:02:05;99580.28;;;8.90;77.29
69214;BME280;56325;47.030;18.518;2023-01-09T04:04:39;99573.75;;;8.87;77.34
69214;BME280;56325;47.030;18.518;2023-01-09T04:07:15;99565.53;;;8.87;77.31
69214;BME280;56325;47.030;18.518;2023-01-09T04:09:49;99570.09;;;8.81;77.76
69214;BME280;56325;47.030;18.518;2023-01-09T04:12:23;99566.44;;;8.84;77.51
69214;BME280;56325;47.030;18.518;2023-01-09T04:14:58;99564.75;;;8.86;77.38
69214;BME280;56325;47.030;18.518;2023-01-09T04:17:32;99571.03;;;8.78;77.82
69214;BME280;56325;47.030;18.518;2023-01-09T04:20:08;99564.16;;;8.82;77.75
69214;BME280;56325;47.030;18.518;2023-01-09T04:22:44;99558.81;;;8.88;77.56
69214;BME280;56325;47.030;18.518;2023-01-09T04:25:18;99554.59;;;8.78;77.73
69214;BME280;56325;47.030;18.518;2023-01-09T04:27:54;99567.06;;;8.79;77.79
69214;BME280;56325;47.030;18.518;2023-01-09T04:30:28;99557.16;;;8.81;77.79
69214;BME280;56325;47.030;18.518;2023-01-09T04:33:03;99557.63;;;8.80;77.67
69214;BME280;56325;47.030;18.518;2023-01-09T04:35:37;99564.00;;;8.86;77.37
69214;BME280;56325;47.030;18.518;2023-01-09T04:38:13;99550.47;;;8.82;77.66
69214;BME280;56325;47.030;18.518;2023-01-09T04:40:47;99546.50;;;8.83;77.23
69214;BME280;56325;47.030;18.518;2023-01-09T04:43:22;99549.69;;;8.82;77.35
69214;BME280;56325;47.030;18.518;2023-01-09T04:45:56;99545.56;;;8.86;77.19
69214;BME280;56325;47.030;18.518;2023-01-09T04:48:31;99550.41;;;8.92;77.08
69214;BME280;56325;47.030;18.518;2023-01-09T04:51:05;99552.06;;;8.98;76.85
69214;BME280;56325;47.030;18.518;2023-01-09T04:53:40;99541.31;;;10.99;99.84
69214;BME280;56325;47.030;18.518;2023-01-09T04:56:15;99556.31;;;9.95;80.50
69214;BME280;56325;47.030;18.518;2023-01-09T04:58:49;99554.22;;;9.51;77.79
69214;BME280;56325;47.030;18.518;2023-01-09T05:01:23;99561.69;;;9.27;77.87
69214;BME280;56325;47.030;18.518;2023-01-09T05:03:58;99554.09;;;9.22;77.86
69214;BME280;56325;47.030;18.518;2023-01-09T05:06:33;99548.31;;;9.19;77.76
69214;BME280;56325;47.030;18.518;2023-01-09T05:09:08;99551.25;;;9.07;78.01
69214;BME280;56325;47.030;18.518;2023-01-09T05:11:43;99548.81;;;9.09;77.42
69214;BME280;56325;47.030;18.518;2023-01-09T05:14:17;99550.87;;;8.90;78.40
69214;BME280;56325;47.030;18.518;2023-01-09T05:16:52;99558.56;;;9.10;77.50
69214;BME280;56325;47.030;18.518;2023-01-09T05:19:27;99564.28;;;8.88;78.38
69214;BME280;56325;47.030;18.518;2023-01-09T05:22:02;99568.84;;;8.91;77.98
69214;BME280;56325;47.030;18.518;2023-01-09T05:24:38;99566.75;;;8.86;77.90
69214;BME280;56325;47.030;18.518;2023-01-09T05:27:12;99566.78;;;8.77;78.21
69214;BME280;56325;47.030;18.518;2023-01-09T05:29:46;99569.06;;;8.78;78.51
69214;BME280;56325;47.030;18.518;2023-01-09T05:32:21;99563.78;;;8.66;79.08
69214;BME280;56325;47.030;18.518;2023-01-09T05:34:55;99570.72;;;8.76;79.11
69214;BME280;56325;47.030;18.518;2023-01-09T05:37:30;99580.81;;;8.70;79.02
69214;BME280;56325;47.030;18.518;2023-01-09T05:40:06;99581.44;;;9.54;95.55
69214;BME280;56325;47.030;18.518;2023-01-09T05:42:41;99578.34;;;10.24;96.84
69214;BME280;56325;47.030;18.518;2023-01-09T05:45:16;99569.91;;;9.50;80.63
69214;BME280;56325;47.030;18.518;2023-01-09T05:47:51;99578.69;;;9.07;78.26
69214;BME280;56325;47.030;18.518;2023-01-09T05:50:25;99582.59;;;8.82;78.67
69214;BME280;56325;47.030;18.518;2023-01-09T05:53:00;99574.16;;;8.62;79.25
69214;BME280;56325;47.030;18.518;2023-01-09T05:55:35;99581.78;;;8.58;80.13
69214;BME280;56325;47.030;18.518;2023-01-09T05:58:10;99572.03;;;8.57;79.96
69214;BME280;56325;47.030;18.518;2023-01-09T06:00:45;99571.31;;;8.38;80.96
69214;BME280;56325;47.030;18.518;2023-01-09T06:03:20;99580.16;;;8.33;81.40
69214;BME280;56325;47.030;18.518;2023-01-09T06:05:54;99576.78;;;8.38;81.05
69214;BME280;56325;47.030;18.518;2023-01-09T06:08:29;99574.97;;;8.35;81.29
69214;BME280;56325;47.030;18.518;2023-01-09T06:11:05;99576.94;;;8.34;81.72
69214;BME280;56325;47.030;18.518;2023-01-09T06:13:39;99575.44;;;8.33;81.94
69214;BME280;56325;47.030;18.518;2023-01-09T06:16:13;99567.50;;;8.26;82.26
69214;BME280;56325;47.030;18.518;2023-01-09T06:18:48;99565.22;;;8.15;82.38
69214;BME280;56325;47.030;18.518;2023-01-09T06:21:22;99586.69;;;8.17;82.90
69214;BME280;56325;47.030;18.518;2023-01-09T06:23:57;99574.81;;;8.29;82.52
69214;BME280;56325;47.030;18.518;2023-01-09T06:26:33;99574.22;;;8.07;83.37
69214;BME280;56325;47.030;18.518;2023-01-09T06:29:07;99573.59;;;8.03;83.70
69214;BME280;56325;47.030;18.518;2023-01-09T06:31:42;99578.62;;;7.95;84.04
69214;BME280;56325;47.030;18.518;2023-01-09T06:34:16;99577.56;;;7.93;84.27
69214;BME280;56325;47.030;18.518;2023-01-09T06:36:50;99580.28;;;7.93;84.46
69214;BME280;56325;47.030;18.518;2023-01-09T06:39:25;99574.06;;;8.01;84.12
69214;BME280;56325;47.030;18.518;2023-01-09T06:42:00;99574.97;;;7.98;83.87
69214;BME280;56325;47.030;18.518;2023-01-09T06:44:35;99576.03;;;7.92;84.16
69214;BME280;56325;47.030;18.518;2023-01-09T06:47:09;99583.03;;;7.83;84.50
69214;BME280;56325;47.030;18.518;2023-01-09T06:49:43;99569.34;;;7.93;84.12
69214;BME280;56325;47.030;18.518;2023-01-09T06:52:18;99563.75;;;7.69;84.65
69214;BME280;56325;47.030;18.518;2023-01-09T06:54:52;99569.06;;;7.72;85.32
69214;BME280;56325;47.030;18.518;2023-01-09T06:57:28;99567.37;;;7.84;85.42
69214;BME280;56325;47.030;18.518;2023-01-09T07:00:03;99572.84;;;7.84;85.16
69214;BME280;56325;47.030;18.518;2023-01-09T07:03:01;99568.28;;;7.99;86.19
69214;BME280;56325;47.030;18.518;2023-01-09T07:05:40;99568.28;;;7.99;86.19
69214;BME280;56325;47.030;18.518;2023-01-09T07:08:15;99566.59;;;7.56;87.54
69214;BME280;56325;47.030;18.518;2023-01-09T07:10:49;99557.78;;;7.52;88.06
69214;BME280;56325;47.030;18.518;2023-01-09T07:13:24;99558.69;;;7.49;88.45
69214;BME280;56325;47.030;18.518;2023-01-09T07:15:58;99547.31;;;7.60;88.22
69214;BME280;56325;47.030;18.518;2023-01-09T07:18:36;99548.34;;;7.44;89.35
69214;BME280;56325;47.030;18.518;2023-01-09T07:21:11;99548.03;;;7.33;89.70
69214;BME280;56325;47.030;18.518;2023-01-09T07:23:45;99547.25;;;7.23;90.48
69214;BME280;56325;47.030;18.518;2023-01-09T07:26:20;99550.16;;;7.38;90.67
69214;BME280;56325;47.030;18.518;2023-01-09T07:28:54;99548.38;;;7.53;89.77
69214;BME280;56325;47.030;18.518;2023-01-09T07:31:29;99551.69;;;7.39;89.92
69214;BME280;56325;47.030;18.518;2023-01-09T07:34:05;99550.50;;;7.49;89.98
69214;BME280;56325;47.030;18.518;2023-01-09T07:36:39;99555.50;;;7.41;90.18
69214;BME280;56325;47.030;18.518;2023-01-09T07:39:14;99553.38;;;7.45;90.40
69214;BME280;56325;47.030;18.518;2023-01-09T07:41:48;99554.44;;;7.48;90.30
69214;BME280;56325;47.030;18.518;2023-01-09T07:44:23;99551.72;;;7.57;90.07
69214;BME280;56325;47.030;18.518;2023-01-09T07:46:57;99550.22;;;7.65;89.86
69214;BME280;56325;47.030;18.518;2023-01-09T07:49:33;99550.66;;;7.64;89.76
69214;BME280;56325;47.030;18.518;2023-01-09T07:52:07;99543.81;;;7.59;89.91
69214;BME280;56325;47.030;18.518;2023-01-09T07:54:41;99550.34;;;7.52;90.30
69214;BME280;56325;47.030;18.518;2023-01-09T07:57:16;99553.81;;;7.44;90.76
69214;BME280;56325;47.030;18.518;2023-01-09T07:59:50;99544.72;;;7.56;90.28
69214;BME280;56325;47.030;18.518;2023-01-09T08:02:24;99559.59;;;7.37;91.18
69214;BME280;56325;47.030;18.518;2023-01-09T08:05:01;99557.94;;;7.48;91.05
69214;BME280;56325;47.030;18.518;2023-01-09T08:07:35;99550.66;;;7.54;91.43
69214;BME280;56325;47.030;18.518;2023-01-09T08:10:11;99546.38;;;7.44;91.73
69214;BME280;56325;47.030;18.518;2023-01-09T08:12:46;99533.00;;;7.46;92.08
69214;BME280;56325;47.030;18.518;2023-01-09T08:15:21;99526.47;;;7.53;91.70
69214;BME280;56325;47.030;18.518;2023-01-09T08:17:55;99537.25;;;7.47;91.86
69214;BME280;56325;47.030;18.518;2023-01-09T08:20:31;99530.28;;;7.46;91.56
69214;BME280;56325;47.030;18.518;2023-01-09T08:23:05;99539.06;;;7.32;92.49
69214;BME280;56325;47.030;18.518;2023-01-09T08:25:39;99530.69;;;7.17;93.00
69214;BME280;56325;47.030;18.518;2023-01-09T08:28:14;99534.34;;;7.23;92.88
69214;BME280;56325;47.030;18.518;2023-01-09T08:30:49;99541.31;;;7.15;92.95
69214;BME280;56325;47.030;18.518;2023-01-09T08:33:23;99522.81;;;7.29;92.29
69214;BME280;56325;47.030;18.518;2023-01-09T08:36:00;99523.25;;;7.27;91.86
69214;BME280;56325;47.030;18.518;2023-01-09T08:38:34;99524.91;;;7.15;92.01
69214;BME280;56325;47.030;18.518;2023-01-09T08:41:08;99528.50;;;7.03;92.59
69214;BME280;56325;47.030;18.518;2023-01-09T08:44:00;99521.25;;;9.90;100.00
69214;BME280;56325;47.030;18.518;2023-01-09T08:46:52;99524.31;;;8.03;93.58
69214;BME280;56325;47.030;18.518;2023-01-09T08:49:39;99520.87;;;7.66;92.07
69214;BME280;56325;47.030;18.518;2023-01-09T08:52:15;99523.13;;;7.40;92.22
69214;BME280;56325;47.030;18.518;2023-01-09T08:54:49;99516.72;;;7.24;91.98
69214;BME280;56325;47.030;18.518;2023-01-09T08:57:24;99521.13;;;7.31;92.30
69214;BME280;56325;47.030;18.518;2023-01-09T08:59:58;99513.97;;;7.24;92.44
69214;BME280;56325;47.030;18.518;2023-01-09T09:02:34;99530.81;;;7.14;93.04
69214;BME280;56325;47.030;18.518;2023-01-09T09:05:08;99514.56;;;7.10;92.89
69214;BME280;56325;47.030;18.518;2023-01-09T09:07:48;99525.19;;;7.08;92.29
69214;BME280;56325;47.030;18.518;2023-01-09T09:10:25;99528.37;;;7.07;92.95
69214;BME280;56325;47.030;18.518;2023-01-09T09:13:00;99530.03;;;7.04;93.29
69214;BME280;56325;47.030;18.518;2023-01-09T09:15:34;99532.94;;;7.10;93.47
69214;BME280;56325;47.030;18.518;2023-01-09T09:18:10;99532.47;;;7.02;93.67
69214;BME280;56325;47.030;18.518;2023-01-09T09:20:44;99542.16;;;6.85;93.94
69214;BME280;56325;47.030;18.518;2023-01-09T09:23:20;99542.72;;;6.80;94.27
69214;BME280;56325;47.030;18.518;2023-01-09T09:25:55;99538.31;;;6.73;94.63
69214;BME280;56325;47.030;18.518;2023-01-09T09:28:29;99532.38;;;6.75;95.03
69214;BME280;56325;47.030;18.518;2023-01-09T09:31:04;99537.56;;;6.82;94.85
69214;BME280;56325;47.030;18.518;2023-01-09T09:33:39;99540.12;;;6.76;95.47
69214;BME280;56325;47.030;18.518;2023-01-09T09:36:13;99520.19;;;9.72;100.00
69214;BME280;56325;47.030;18.518;2023-01-09T09:38:49;99518.09;;;7.84;95.26
69214;BME280;56325;47.030;18.518;2023-01-09T09:41:39;99510.94;;;7.32;94.16
69214;BME280;56325;47.030;18.518;2023-01-09T09:44:58;99516.06;;;7.02;95.00
69214;BME280;56325;47.030;18.518;2023-01-09T09:47:49;99518.78;;;6.93;95.31
69214;BME280;56325;47.030;18.518;2023-01-09T09:50:53;99506.47;;;6.88;95.50
69214;BME280;56325;47.030;18.518;2023-01-09T09:53:33;99494.66;;;6.92;95.47
69214;BME280;56325;47.030;18.518;2023-01-09T09:56:13;99492.66;;;6.83;95.26
69214;BME280;56325;47.030;18.518;2023-01-09T09:58:50;99489.97;;;7.29;99.02
69214;BME280;56325;47.030;18.518;2023-01-09T10:01:32;99490.66;;;8.72;100.00
69214;BME280;56325;47.030;18.518;2023-01-09T10:04:12;99483.00;;;7.37;95.17
69214;BME280;56325;47.030;18.518;2023-01-09T10:06:51;99462.91;;;7.03;95.25
69214;BME280;56325;47.030;18.518;2023-01-09T10:09:37;99448.00;;;6.77;96.22
69214;BME280;56325;47.030;18.518;2023-01-09T10:12:26;99421.72;;;9.50;100.00
69214;BME280;56325;47.030;18.518;2023-01-09T10:15:08;99460.63;;;7.84;94.38
69214;BME280;56325;47.030;18.518;2023-01-09T10:17:55;99448.66;;;7.27;93.13
69214;BME280;56325;47.030;18.518;2023-01-09T10:20:51;99428.59;;;6.93;94.32
69214;BME280;56325;47.030;18.518;2023-01-09T10:26:53;99438.47;;;6.90;95.53
69214;BME280;56325;47.030;18.518;2023-01-09T10:29:47;99441.62;;;6.98;95.43
69214;BME280;56325;47.030;18.518;2023-01-09T10:32:37;99441.62;;;6.98;95.14
69214;BME280;56325;47.030;18.518;2023-01-09T10:35:45;99425.09;;;7.02;95.04
69214;BME280;56325;47.030;18.518;2023-01-09T10:38:27;99445.59;;;6.97;95.81
69214;BME280;56325;47.030;18.518;2023-01-09T10:41:08;99429.81;;;6.92;95.53
69214;BME280;56325;47.030;18.518;2023-01-09T10:43:48;99434.66;;;6.97;96.01
69214;BME280;56325;47.030;18.518;2023-01-09T10:46:27;99435.88;;;6.96;96.18
69214;BME280;56325;47.030;18.518;2023-01-09T10:49:09;99425.72;;;7.15;94.61
69214;BME280;56325;47.030;18.518;2023-01-09T10:51:46;99432.84;;;7.03;95.09
69214;BME280;56325;47.030;18.518;2023-01-09T10:54:21;99436.31;;;6.95;95.87
69214;BME280;56325;47.030;18.518;2023-01-09T10:56:59;99435.41;;;6.98;95.59
69214;BME280;56325;47.030;18.518;2023-01-09T10:59:35;99433.16;;;7.05;95.22
69214;BME280;56325;47.030;18.518;2023-01-09T11:02:23;99434.97;;;6.99;95.75
69214;BME280;56325;47.030;18.518;2023-01-09T11:04:59;99433.44;;;6.98;96.58
69214;BME280;56325;47.030;18.518;2023-01-09T11:07:36;99416.75;;;7.05;96.30
69214;BME280;56325;47.030;18.518;2023-01-09T11:10:12;99429.22;;;7.15;95.33
69214;BME280;56325;47.030;18.518;2023-01-09T11:12:47;99424.34;;;7.10;95.62
69214;BME280;56325;47.030;18.518;2023-01-09T11:15:24;99419.50;;;7.14;95.95
69214;BME280;56325;47.030;18.518;2023-01-09T11:18:20;99423.44;;;7.32;95.00
69214;BME280;56325;47.030;18.518;2023-01-09T11:21:12;99410.06;;;7.15;96.04
69214;BME280;56325;47.030;18.518;2023-01-09T11:23:46;99404.16;;;7.17;96.06
69214;BME280;56325;47.030;18.518;2023-01-09T11:26:24;99411.91;;;7.37;94.79
69214;BME280;56325;47.030;18.518;2023-01-09T11:29:05;99401.25;;;7.20;95.51
69214;BME280;56325;47.030;18.518;2023-01-09T11:31:42;99409.47;;;7.11;95.88
69214;BME280;56325;47.030;18.518;2023-01-09T11:34:26;99404.16;;;7.17;96.08
69214;BME280;56325;47.030;18.518;2023-01-09T11:37:06;99408.72;;;7.29;95.52
69214;BME280;56325;47.030;18.518;2023-01-09T11:39:44;99389.56;;;7.20;95.77
69214;BME280;56325;47.030;18.518;2023-01-09T11:42:21;99382.44;;;7.13;96.52
69214;BME280;56325;47.030;18.518;2023-01-09T11:45:18;99380.59;;;7.29;96.23
69214;BME280;56325;47.030;18.518;2023-01-09T11:47:53;99379.06;;;7.37;95.43
69214;BME280;56325;47.030;18.518;2023-01-09T11:50:29;99376.50;;;7.33;95.54
69214;BME280;56325;47.030;18.518;2023-01-09T11:53:12;99373.63;;;7.28;95.66
69214;BME280;56325;47.030;18.518;2023-01-09T11:55:53;99368.28;;;7.33;95.13
69214;BME280;56325;47.030;18.518;2023-01-09T11:58:30;99362.97;;;7.39;95.28
69214;BME280;56325;47.030;18.518;2023-01-09T12:01:23;99349.31;;;7.30;95.41
69214;BME280;56325;47.030;18.518;2023-01-09T12:04:19;99346.72;;;7.26;95.55
69214;BME280;56325;47.030;18.518;2023-01-09T12:07:13;99343.22;;;7.35;95.29
69214;BME280;56325;47.030;18.518;2023-01-09T12:09:59;99343.84;;;7.30;95.47
69214;BME280;56325;47.030;18.518;2023-01-09T12:12:42;99321.34;;;7.26;96.06
69214;BME280;56325;47.030;18.518;2023-01-09T12:15:27;99323.78;;;7.23;96.51
69214;BME280;56325;47.030;18.518;2023-01-09T12:18:19;99324.25;;;7.13;96.98
69214;BME280;56325;47.030;18.518;2023-01-09T12:21:24;99319.84;;;7.15;96.81
69214;BME280;56325;47.030;18.518;2023-01-09T12:24:16;99315.28;;;7.12;96.93
69214;BME280;56325;47.030;18.518;2023-01-09T12:27:02;99325.78;;;7.14;96.71
69214;BME280;56325;47.030;18.518;2023-01-09T12:29:54;99304.19;;;9.49;100.00
69214;BME280;56325;47.030;18.518;2023-01-09T12:32:41;99305.16;;;7.97;99.45
69214;BME280;56325;47.030;18.518;2023-01-09T12:35:29;99308.16;;;7.75;97.06
69214;BME280;56325;47.030;18.518;2023-01-09T12:38:17;99305.47;;;7.66;96.38
69214;BME280;56325;47.030;18.518;2023-01-09T12:41:07;99308.88;;;7.43;96.47
69214;BME280;56325;47.030;18.518;2023-01-09T12:43:51;99300.34;;;7.50;95.98
69214;BME280;56325;47.030;18.518;2023-01-09T12:46:32;99308.09;;;7.42;96.28
69214;BME280;56325;47.030;18.518;2023-01-09T12:49:23;99299.31;;;7.38;95.71
69214;BME280;56325;47.030;18.518;2023-01-09T12:52:06;99302.66;;;7.33;96.44
69214;BME280;56325;47.030;18.518;2023-01-09T13:01:28;99293.59;;;9.92;100.00
69214;BME280;56325;47.030;18.518;2023-01-09T13:04:09;99300.13;;;8.38;100.00
69214;BME280;56325;47.030;18.518;2023-01-09T13:06:50;99293.63;;;7.93;97.89
69214;BME280;56325;47.030;18.518;2023-01-09T13:09:31;99290.00;;;7.87;96.40
69214;BME280;56325;47.030;18.518;2023-01-09T13:12:12;99295.13;;;7.70;95.66
69214;BME280;56325;47.030;18.518;2023-01-09T13:14:51;99301.66;;;7.64;96.60
69214;BME280;56325;47.030;18.518;2023-01-09T13:17:34;99301.25;;;7.56;96.79
69214;BME280;56325;47.030;18.518;2023-01-09T13:20:18;99290.88;;;7.60;97.02
69214;BME280;56325;47.030;18.518;2023-01-09T13:22:54;99294.66;;;7.72;96.14
69214;BME280;56325;47.030;18.518;2023-01-09T13:25:36;99298.94;;;7.64;95.84
69214;BME280;56325;47.030;18.518;2023-01-09T13:28:17;99294.22;;;7.64;95.90
69214;BME280;56325;47.030;18.518;2023-01-09T13:31:18;99298.19;;;7.63;95.79
69214;BME280;56325;47.030;18.518;2023-01-09T13:33:58;99289.06;;;7.57;95.97
69214;BME280;56325;47.030;18.518;2023-01-09T13:36:37;99289.38;;;7.59;95.95
69214;BME280;56325;47.030;18.518;2023-01-09T13:39:19;99290.91;;;7.51;96.43
69214;BME280;56325;47.030;18.518;2023-01-09T13:41:58;99294.72;;;7.53;96.48
69214;BME280;56325;47.030;18.518;2023-01-09T13:44:53;99301.84;;;7.60;96.33
69214;BME280;56325;47.030;18.518;2023-01-09T13:47:28;99293.09;;;11.09;100.00
69214;BME280;56325;47.030;18.518;2023-01-09T13:50:25;99291.66;;;11.45;100.00
69214;BME280;56325;47.030;18.518;2023-01-09T13:53:43;99310.69;;;9.66;98.25
69214;BME280;56325;47.030;18.518;2023-01-09T13:56:17;99309.22;;;8.82;96.64
69214;BME280;56325;47.030;18.518;2023-01-09T13:58:57;99324.19;;;8.58;96.12
69214;BME280;56325;47.030;18.518;2023-01-09T14:01:42;99322.78;;;8.38;95.82
69214;BME280;56325;47.030;18.518;2023-01-09T14:04:39;99315.41;;;8.20;96.02
69214;BME280;56325;47.030;18.518;2023-01-09T14:07:24;99315.28;;;8.15;96.39
69214;BME280;56325;47.030;18.518;2023-01-09T14:10:01;99315.75;;;8.13;96.33
69214;BME280;56325;47.030;18.518;2023-01-09T14:12:38;99321.13;;;7.99;95.79
69214;BME280;56325;47.030;18.518;2023-01-09T14:15:24;99312.78;;;7.93;96.58